sensor_id;sensor_type;location;lat;lon;timestamp;temperature;humidity
12926;DHT22;6529;50.566;9.774;2023-08-20T00:00:25;22.40;99.90
12926;DHT22;6529;50.566;9.774;2023-08-20T00:02:58;22.40;99.90
12926;DHT22;6529;50.566;9.774;2023-08-20T00:05:25;22.40;99.90
12926;DHT22;6529;50.566;9.774;2023-08-20T00:07:50;22.40;99.90
12926;DHT22;6529;50.566;9.774;2023-08-20T00:10:16;22.30;99.90
12926;DHT22;6529;50.566;9.774;2023-08-20T00:12:42;22.20;99.90
12926;DHT22;6529;50.566;9.774;2023-08-20T00:15:07;22.10;99.90
12926;DHT22;6529;50.566;9.774;2023-08-20T00:17:38;22.10;99.90
12926;DHT22;6529;50.566;9.774;2023-08-20T00:20:05;22.30;99.90
12926;DHT22;6529;50.566;9.774;2023-08-20T00:22:42;22.40;99.90
12926;DHT22;6529;50.566;9.774;2023-08-20T00:25:09;22.40;99.90
12926;DHT22;6529;50.566;9.774;2023-08-20T00:27:35;22.30;99.90
12926;DHT22;6529;50.566;9.774;2023-08-20T00:30:00;22.30;99.90
12926;DHT22;6529;50.566;9.774;2023-08-20T00:32:26;22.30;99.90
12926;DHT22;6529;50.566;9.774;2023-08-20T00:34:52;22.30;99.90
12926;DHT22;6529;50.566;9.774;2023-08-20T00:37:17;22.30;99.90
12926;DHT22;6529;50.566;9.774;2023-08-20T00:39:43;22.20;99.90
12926;DHT22;6529;50.566;9.774;2023-08-20T00:42:08;22.20;99.90
12926;DHT22;6529;50.566;9.774;2023-08-20T00:44:34;22.20;99.90
12926;DHT22;6529;50.566;9.774;2023-08-20T00:47:04;22.20;99.90
12926;DHT22;6529;50.566;9.774;2023-08-20T00:49:31;22.20;99.90
12926;DHT22;6529;50.566;9.774;2023-08-20T00:51:57;22.10;99.90
12926;DHT22;6529;50.566;9.774;2023-08-20T00:54:23;22.10;99.90
12926;DHT22;6529;50.566;9.774;2023-08-20T00:56:49;22.00;99.90
12926;DHT22;6529;50.566;9.774;2023-08-20T00:59:16;22.00;99.90
12926;DHT22;6529;50.566;9.774;2023-08-20T01:01:43;21.80;99.90
12926;DHT22;6529;50.566;9.774;2023-08-20T01:04:08;21.80;99.90
12926;DHT22;6529;50.566;9.774;2023-08-20T01:09:21;21.80;99.90
12926;DHT22;6529;50.566;9.774;2023-08-20T01:11:54;21.70;99.90
12926;DHT22;6529;50.566;9.774;2023-08-20T01:14:21;21.70;99.90
12926;DHT22;6529;50.566;9.774;2023-08-20T01:16:46;21.80;99.90
12926;DHT22;6529;50.566;9.774;2023-08-20T01:19:18;21.80;99.90
12926;DHT22;6529;50.566;9.774;2023-08-20T01:22:05;21.90;99.90
12926;DHT22;6529;50.566;9.774;2023-08-20T01:30:07;21.70;99.90
12926;DHT22;6529;50.566;9.774;2023-08-20T01:32:34;21.60;99.90
12926;DHT22;6529;50.566;9.774;2023-08-20T01:35:00;21.60;99.90
12926;DHT22;6529;50.566;9.774;2023-08-20T01:37:26;21.50;99.90
12926;DHT22;6529;50.566;9.774;2023-08-20T01:39:51;21.40;99.90
12926;DHT22;6529;50.566;9.774;2023-08-20T01:42:18;21.40;99.90
12926;DHT22;6529;50.566;9.774;2023-08-20T01:44:43;21.50;99.90
12926;DHT22;6529;50.566;9.774;2023-08-20T01:47:09;21.50;99.90
12926;DHT22;6529;50.566;9.774;2023-08-20T01:49:34;21.40;99.90
12926;DHT22;6529;50.566;9.774;2023-08-20T01:52:00;21.40;99.90
12926;DHT22;6529;50.566;9.774;2023-08-20T01:54:25;21.30;99.90
12926;DHT22;6529;50.566;9.774;2023-08-20T01:56:51;21.40;99.90
12926;DHT22;6529;50.566;9.774;2023-08-20T01:59:17;21.40;99.90
12926;DHT22;6529;50.566;9.774;2023-08-20T02:01:44;21.40;99.90
12926;DHT22;6529;50.566;9.774;2023-08-20T02:04:09;21.40;99.90
12926;DHT22;6529;50.566;9.774;2023-08-20T02:06:35;21.50;99.90
12926;DHT22;6529;50.566;9.774;2023-08-20T02:09:00;21.50;99.90
12926;DHT22;6529;50.566;9.774;2023-08-20T02:11:26;21.50;99.90
12926;DHT22;6529;50.566;9.774;2023-08-20T02:13:51;21.50;99.90
12926;DHT22;6529;50.566;9.774;2023-08-20T02:16:17;21.50;99.90
12926;DHT22;6529;50.566;9.774;2023-08-20T02:18:43;21.50;99.90
12926;DHT22;6529;50.566;9.774;2023-08-20T02:21:08;21.50;99.90
12926;DHT22;6529;50.566;9.774;2023-08-20T02:23:34;21.40;99.90
12926;DHT22;6529;50.566;9.774;2023-08-20T02:25:59;21.30;99.90
12926;DHT22;6529;50.566;9.774;2023-08-20T02:28:26;21.20;99.90
12926;DHT22;6529;50.566;9.774;2023-08-20T02:30:52;21.10;99.90
12926;DHT22;6529;50.566;9.774;2023-08-20T02:33:17;21.00;99.90
12926;DHT22;6529;50.566;9.774;2023-08-20T02:35:43;21.00;99.90
12926;DHT22;6529;50.566;9.774;2023-08-20T02:38:09;21.00;99.90
12926;DHT22;6529;50.566;9.774;2023-08-20T02:40:40;21.00;99.90
12926;DHT22;6529;50.566;9.774;2023-08-20T02:43:06;21.00;99.90
12926;DHT22;6529;50.566;9.774;2023-08-20T02:45:32;21.00;99.90
12926;DHT22;6529;50.566;9.774;2023-08-20T02:47:57;21.00;99.90
12926;DHT22;6529;50.566;9.774;2023-08-20T02:50:23;20.90;99.90
12926;DHT22;6529;50.566;9.774;2023-08-20T02:52:49;21.00;99.90
12926;DHT22;6529;50.566;9.774;2023-08-20T02:55:14;21.10;99.90
12926;DHT22;6529;50.566;9.774;2023-08-20T02:57:40;21.10;99.90
12926;DHT22;6529;50.566;9.774;2023-08-20T03:00:06;21.00;99.90
12926;DHT22;6529;50.566;9.774;2023-08-20T03:02:35;20.90;99.90
12926;DHT22;6529;50.566;9.774;2023-08-20T03:05:01;20.90;99.90
12926;DHT22;6529;50.566;9.774;2023-08-20T03:07:26;20.80;99.90
12926;DHT22;6529;50.566;9.774;2023-08-20T03:09:52;20.90;99.90
12926;DHT22;6529;50.566;9.774;2023-08-20T03:12:17;21.00;99.90
12926;DHT22;6529;50.566;9.774;2023-08-20T03:14:43;21.00;99.90
12926;DHT22;6529;50.566;9.774;2023-08-20T03:17:09;20.90;99.90
12926;DHT22;6529;50.566;9.774;2023-08-20T03:19:34;20.80;99.90
12926;DHT22;6529;50.566;9.774;2023-08-20T03:22:02;20.80;99.90
12926;DHT22;6529;50.566;9.774;2023-08-20T03:24:28;20.80;99.90
12926;DHT22;6529;50.566;9.774;2023-08-20T03:26:53;20.80;99.90
12926;DHT22;6529;50.566;9.774;2023-08-20T03:29:19;20.90;99.90
12926;DHT22;6529;50.566;9.774;2023-08-20T03:31:45;20.90;99.90
12926;DHT22;6529;50.566;9.774;2023-08-20T03:34:10;21.00;99.90
12926;DHT22;6529;50.566;9.774;2023-08-20T03:36:36;20.90;99.90
12926;DHT22;6529;50.566;9.774;2023-08-20T03:39:01;20.90;99.90
12926;DHT22;6529;50.566;9.774;2023-08-20T03:41:28;20.70;99.90
12926;DHT22;6529;50.566;9.774;2023-08-20T03:43:54;20.80;99.90
12926;DHT22;6529;50.566;9.774;2023-08-20T03:46:20;20.80;99.90
12926;DHT22;6529;50.566;9.774;2023-08-20T03:48:45;20.80;99.90
12926;DHT22;6529;50.566;9.774;2023-08-20T03:51:11;20.80;99.90
12926;DHT22;6529;50.566;9.774;2023-08-20T03:53:36;20.80;99.90
12926;DHT22;6529;50.566;9.774;2023-08-20T03:56:02;20.90;99.90
12926;DHT22;6529;50.566;9.774;2023-08-20T03:58:27;20.90;99.90
12926;DHT22;6529;50.566;9.774;2023-08-20T04:00:53;20.80;99.90
12926;DHT22;6529;50.566;9.774;2023-08-20T04:03:18;20.70;99.90
12926;DHT22;6529;50.566;9.774;2023-08-20T04:05:45;20.60;99.90
12926;DHT22;6529;50.566;9.774;2023-08-20T04:08:10;20.60;99.90
12926;DHT22;6529;50.566;9.774;2023-08-20T04:10:42;20.60;99.90
12926;DHT22;6529;50.566;9.774;2023-08-20T04:13:09;20.50;99.90
12926;DHT22;6529;50.566;9.774;2023-08-20T04:15:34;20.50;99.90
12926;DHT22;6529;50.566;9.774;2023-08-20T04:18:00;20.50;99.90
12926;DHT22;6529;50.566;9.774;2023-08-20T04:20:25;20.50;99.90
12926;DHT22;6529;50.566;9.774;2023-08-20T04:22:51;20.50;99.90
12926;DHT22;6529;50.566;9.774;2023-08-20T04:25:17;20.60;99.90
12926;DHT22;6529;50.566;9.774;2023-08-20T04:27:43;20.60;99.90
12926;DHT22;6529;50.566;9.774;2023-08-20T04:30:09;20.60;99.90
12926;DHT22;6529;50.566;9.774;2023-08-20T04:32:35;20.60;99.90
12926;DHT22;6529;50.566;9.774;2023-08-20T04:35:00;20.60;99.90
12926;DHT22;6529;50.566;9.774;2023-08-20T04:37:26;20.60;99.90
12926;DHT22;6529;50.566;9.774;2023-08-20T04:39:51;20.60;99.90
12926;DHT22;6529;50.566;9.774;2023-08-20T04:42:17;20.50;99.90
12926;DHT22;6529;50.566;9.774;2023-08-20T04:44:42;20.40;99.90
12926;DHT22;6529;50.566;9.774;2023-08-20T04:47:12;20.40;99.90
12926;DHT22;6529;50.566;9.774;2023-08-20T04:49:40;20.40;99.90
12926;DHT22;6529;50.566;9.774;2023-08-20T04:52:06;20.30;99.90
12926;DHT22;6529;50.566;9.774;2023-08-20T04:54:31;20.30;99.90
12926;DHT22;6529;50.566;9.774;2023-08-20T04:56:57;20.30;99.90
12926;DHT22;6529;50.566;9.774;2023-08-20T04:59:23;20.20;99.90
12926;DHT22;6529;50.566;9.774;2023-08-20T05:01:49;20.20;99.90
12926;DHT22;6529;50.566;9.774;2023-08-20T05:04:14;20.00;99.90
12926;DHT22;6529;50.566;9.774;2023-08-20T05:06:40;20.00;99.90
12926;DHT22;6529;50.566;9.774;2023-08-20T05:09:05;20.00;99.90
12926;DHT22;6529;50.566;9.774;2023-08-20T05:11:31;20.00;99.90
12926;DHT22;6529;50.566;9.774;2023-08-20T05:13:58;20.10;99.90
12926;DHT22;6529;50.566;9.774;2023-08-20T05:16:24;20.60;99.90
12926;DHT22;6529;50.566;9.774;2023-08-20T05:18:49;21.40;99.90
12926;DHT22;6529;50.566;9.774;2023-08-20T05:21:15;22.00;99.90
12926;DHT22;6529;50.566;9.774;2023-08-20T05:23:40;22.50;99.90
12926;DHT22;6529;50.566;9.774;2023-08-20T05:26:07;22.90;99.90
12926;DHT22;6529;50.566;9.774;2023-08-20T05:28:33;23.30;23.50
12926;DHT22;6529;50.566;9.774;2023-08-20T05:30:59;23.20;58.20
12926;DHT22;6529;50.566;9.774;2023-08-20T05:33:25;23.30;99.90
12926;DHT22;6529;50.566;9.774;2023-08-20T05:35:50;23.40;99.20
12926;DHT22;6529;50.566;9.774;2023-08-20T05:38:17;23.50;34.10
12926;DHT22;6529;50.566;9.774;2023-08-20T05:40:42;23.70;1.00
12926;DHT22;6529;50.566;9.774;2023-08-20T05:43:08;23.50;99.90
12926;DHT22;6529;50.566;9.774;2023-08-20T05:45:34;23.30;99.90
12926;DHT22;6529;50.566;9.774;2023-08-20T05:47:59;23.30;99.90
12926;DHT22;6529;50.566;9.774;2023-08-20T05:50:25;23.20;99.90
12926;DHT22;6529;50.566;9.774;2023-08-20T05:52:52;23.40;99.90
12926;DHT22;6529;50.566;9.774;2023-08-20T05:55:18;23.50;99.90
12926;DHT22;6529;50.566;9.774;2023-08-20T05:57:43;23.30;99.90
12926;DHT22;6529;50.566;9.774;2023-08-20T06:00:10;23.50;99.90
12926;DHT22;6529;50.566;9.774;2023-08-20T06:02:36;23.50;99.90
12926;DHT22;6529;50.566;9.774;2023-08-20T06:05:02;23.50;99.90
12926;DHT22;6529;50.566;9.774;2023-08-20T06:07:30;23.20;99.90
12926;DHT22;6529;50.566;9.774;2023-08-20T06:09:56;23.00;99.90
12926;DHT22;6529;50.566;9.774;2023-08-20T06:12:22;22.70;99.90
12926;DHT22;6529;50.566;9.774;2023-08-20T06:14:48;22.90;99.90
12926;DHT22;6529;50.566;9.774;2023-08-20T06:17:13;22.90;99.90
12926;DHT22;6529;50.566;9.774;2023-08-20T06:19:39;23.10;99.90
12926;DHT22;6529;50.566;9.774;2023-08-20T06:22:04;23.40;99.90
12926;DHT22;6529;50.566;9.774;2023-08-20T06:24:30;23.60;99.90
12926;DHT22;6529;50.566;9.774;2023-08-20T06:26:55;23.70;99.90
12926;DHT22;6529;50.566;9.774;2023-08-20T06:29:21;23.70;99.90
12926;DHT22;6529;50.566;9.774;2023-08-20T06:31:49;23.70;99.90
12926;DHT22;6529;50.566;9.774;2023-08-20T06:34:16;23.70;99.90
12926;DHT22;6529;50.566;9.774;2023-08-20T06:36:41;23.80;99.90
12926;DHT22;6529;50.566;9.774;2023-08-20T06:39:07;23.70;99.90
12926;DHT22;6529;50.566;9.774;2023-08-20T06:41:33;23.60;99.90
12926;DHT22;6529;50.566;9.774;2023-08-20T06:43:59;23.60;99.90
12926;DHT22;6529;50.566;9.774;2023-08-20T06:46:24;23.60;99.90
12926;DHT22;6529;50.566;9.774;2023-08-20T06:48:50;23.60;99.90
12926;DHT22;6529;50.566;9.774;2023-08-20T06:51:20;23.40;99.90
12926;DHT22;6529;50.566;9.774;2023-08-20T06:53:46;23.30;99.90
12926;DHT22;6529;50.566;9.774;2023-08-20T06:56:12;23.40;99.90
12926;DHT22;6529;50.566;9.774;2023-08-20T06:58:39;23.10;99.90
12926;DHT22;6529;50.566;9.774;2023-08-20T07:01:05;23.10;99.90
12926;DHT22;6529;50.566;9.774;2023-08-20T07:03:38;23.10;99.90
12926;DHT22;6529;50.566;9.774;2023-08-20T07:06:04;23.20;99.90
12926;DHT22;6529;50.566;9.774;2023-08-20T07:08:30;23.20;99.90
12926;DHT22;6529;50.566;9.774;2023-08-20T07:10:56;23.40;99.90
12926;DHT22;6529;50.566;9.774;2023-08-20T07:13:22;23.40;99.90
12926;DHT22;6529;50.566;9.774;2023-08-20T07:15:48;23.40;99.90
12926;DHT22;6529;50.566;9.774;2023-08-20T07:18:14;23.40;99.90
12926;DHT22;6529;50.566;9.774;2023-08-20T07:20:42;23.40;99.90
12926;DHT22;6529;50.566;9.774;2023-08-20T07:23:09;23.50;99.90
12926;DHT22;6529;50.566;9.774;2023-08-20T07:25:39;23.70;99.90
12926;DHT22;6529;50.566;9.774;2023-08-20T07:28:05;23.70;99.90
12926;DHT22;6529;50.566;9.774;2023-08-20T07:30:31;23.90;99.90
12926;DHT22;6529;50.566;9.774;2023-08-20T07:32:57;23.70;99.90
12926;DHT22;6529;50.566;9.774;2023-08-20T07:35:23;23.80;99.90
12926;DHT22;6529;50.566;9.774;2023-08-20T07:37:48;23.80;99.90
12926;DHT22;6529;50.566;9.774;2023-08-20T07:40:14;23.90;99.90
12926;DHT22;6529;50.566;9.774;2023-08-20T07:42:43;23.90;99.90
12926;DHT22;6529;50.566;9.774;2023-08-20T07:45:09;24.00;99.90
12926;DHT22;6529;50.566;9.774;2023-08-20T07:47:38;23.90;99.90
12926;DHT22;6529;50.566;9.774;2023-08-20T07:50:04;23.90;99.90
12926;DHT22;6529;50.566;9.774;2023-08-20T07:52:30;23.90;99.90
12926;DHT22;6529;50.566;9.774;2023-08-20T07:54:56;24.00;99.90
12926;DHT22;6529;50.566;9.774;2023-08-20T07:57:22;24.10;99.90
12926;DHT22;6529;50.566;9.774;2023-08-20T07:59:49;24.10;99.90
12926;DHT22;6529;50.566;9.774;2023-08-20T08:02:14;24.10;99.90
12926;DHT22;6529;50.566;9.774;2023-08-20T08:04:40;24.10;99.90
12926;DHT22;6529;50.566;9.774;2023-08-20T08:07:06;24.20;99.90
12926;DHT22;6529;50.566;9.774;2023-08-20T08:09:32;24.30;99.90
12926;DHT22;6529;50.566;9.774;2023-08-20T08:11:58;24.50;99.90
12926;DHT22;6529;50.566;9.774;2023-08-20T08:14:24;24.50;99.90
12926;DHT22;6529;50.566;9.774;2023-08-20T08:16:50;24.60;99.90
12926;DHT22;6529;50.566;9.774;2023-08-20T08:19:16;24.80;99.90
12926;DHT22;6529;50.566;9.774;2023-08-20T08:21:43;24.80;99.90
12926;DHT22;6529;50.566;9.774;2023-08-20T08:24:09;24.90;99.90
12926;DHT22;6529;50.566;9.774;2023-08-20T08:26:35;25.00;99.90
12926;DHT22;6529;50.566;9.774;2023-08-20T08:29:02;25.20;99.90
12926;DHT22;6529;50.566;9.774;2023-08-20T08:31:28;25.30;99.90
12926;DHT22;6529;50.566;9.774;2023-08-20T08:33:53;25.40;60.50
12926;DHT22;6529;50.566;9.774;2023-08-20T08:36:19;25.50;26.80
12926;DHT22;6529;50.566;9.774;2023-08-20T08:38:44;25.50;1.00
12926;DHT22;6529;50.566;9.774;2023-08-20T08:41:12;25.60;1.00
12926;DHT22;6529;50.566;9.774;2023-08-20T08:43:38;25.70;1.00
12926;DHT22;6529;50.566;9.774;2023-08-20T08:46:07;25.70;1.00
12926;DHT22;6529;50.566;9.774;2023-08-20T08:48:34;26.00;1.00
12926;DHT22;6529;50.566;9.774;2023-08-20T08:51:01;26.20;1.00
12926;DHT22;6529;50.566;9.774;2023-08-20T08:53:27;26.30;1.00
12926;DHT22;6529;50.566;9.774;2023-08-20T08:55:52;26.30;1.00
12926;DHT22;6529;50.566;9.774;2023-08-20T08:58:18;26.30;1.00
12926;DHT22;6529;50.566;9.774;2023-08-20T09:00:43;26.40;1.00
12926;DHT22;6529;50.566;9.774;2023-08-20T09:03:09;26.40;99.90
12926;DHT22;6529;50.566;9.774;2023-08-20T09:05:48;26.50;1.00
12926;DHT22;6529;50.566;9.774;2023-08-20T09:08:26;26.60;99.90
12926;DHT22;6529;50.566;9.774;2023-08-20T09:10:53;26.80;1.00
12926;DHT22;6529;50.566;9.774;2023-08-20T09:15:51;27.00;1.00
12926;DHT22;6529;50.566;9.774;2023-08-20T09:18:17;27.20;1.00
12926;DHT22;6529;50.566;9.774;2023-08-20T09:20:43;27.00;4.40
12926;DHT22;6529;50.566;9.774;2023-08-20T09:23:12;27.10;20.80
12926;DHT22;6529;50.566;9.774;2023-08-20T09:25:42;27.20;1.00
12926;DHT22;6529;50.566;9.774;2023-08-20T09:28:07;27.30;1.00
12926;DHT22;6529;50.566;9.774;2023-08-20T09:30:33;27.50;1.00
12926;DHT22;6529;50.566;9.774;2023-08-20T09:33:12;27.50;1.00
12926;DHT22;6529;50.566;9.774;2023-08-20T09:35:49;27.80;1.00
12926;DHT22;6529;50.566;9.774;2023-08-20T09:38:14;28.00;2.90
12926;DHT22;6529;50.566;9.774;2023-08-20T09:40:40;28.20;99.90
12926;DHT22;6529;50.566;9.774;2023-08-20T09:43:07;28.20;1.00
12926;DHT22;6529;50.566;9.774;2023-08-20T09:45:34;28.40;99.90
12926;DHT22;6529;50.566;9.774;2023-08-20T09:48:03;28.50;1.00
12926;DHT22;6529;50.566;9.774;2023-08-20T09:50:32;28.50;1.00
12926;DHT22;6529;50.566;9.774;2023-08-20T09:59:00;28.80;1.00
12926;DHT22;6529;50.566;9.774;2023-08-20T10:01:27;28.90;1.00
12926;DHT22;6529;50.566;9.774;2023-08-20T10:03:53;28.80;1.00
12926;DHT22;6529;50.566;9.774;2023-08-20T10:06:19;28.90;1.00
12926;DHT22;6529;50.566;9.774;2023-08-20T10:08:46;28.80;1.70
12926;DHT22;6529;50.566;9.774;2023-08-20T10:11:12;28.80;99.90
12926;DHT22;6529;50.566;9.774;2023-08-20T10:13:38;28.90;1.00
12926;DHT22;6529;50.566;9.774;2023-08-20T10:16:04;28.80;1.00
12926;DHT22;6529;50.566;9.774;2023-08-20T10:18:29;28.80;99.90
12926;DHT22;6529;50.566;9.774;2023-08-20T10:20:58;28.80;1.00
12926;DHT22;6529;50.566;9.774;2023-08-20T10:23:24;29.00;1.00
12926;DHT22;6529;50.566;9.774;2023-08-20T10:25:51;29.10;99.90
12926;DHT22;6529;50.566;9.774;2023-08-20T10:28:25;29.20;1.00
12926;DHT22;6529;50.566;9.774;2023-08-20T10:31:11;29.30;1.00
12926;DHT22;6529;50.566;9.774;2023-08-20T10:36:20;29.40;99.90
12926;DHT22;6529;50.566;9.774;2023-08-20T10:38:53;29.40;1.00
12926;DHT22;6529;50.566;9.774;2023-08-20T10:41:28;29.40;1.00
12926;DHT22;6529;50.566;9.774;2023-08-20T10:43:57;29.40;99.90
12926;DHT22;6529;50.566;9.774;2023-08-20T10:46:25;29.50;99.90
12926;DHT22;6529;50.566;9.774;2023-08-20T10:48:54;29.50;99.90
12926;DHT22;6529;50.566;9.774;2023-08-20T10:51:36;29.40;99.90
12926;DHT22;6529;50.566;9.774;2023-08-20T10:54:05;29.40;1.00
12926;DHT22;6529;50.566;9.774;2023-08-20T10:59:08;29.90;1.00
12926;DHT22;6529;50.566;9.774;2023-08-20T11:01:34;30.00;99.90
12926;DHT22;6529;50.566;9.774;2023-08-20T11:04:00;30.00;1.00
12926;DHT22;6529;50.566;9.774;2023-08-20T11:06:31;30.00;1.00
12926;DHT22;6529;50.566;9.774;2023-08-20T11:09:00;30.20;99.90
12926;DHT22;6529;50.566;9.774;2023-08-20T11:11:26;30.30;12.70
12926;DHT22;6529;50.566;9.774;2023-08-20T11:13:51;30.40;18.70
12926;DHT22;6529;50.566;9.774;2023-08-20T11:16:18;30.50;1.00
12926;DHT22;6529;50.566;9.774;2023-08-20T11:18:44;30.60;99.90
12926;DHT22;6529;50.566;9.774;2023-08-20T11:21:10;30.60;1.00
12926;DHT22;6529;50.566;9.774;2023-08-20T11:23:38;30.70;99.90
12926;DHT22;6529;50.566;9.774;2023-08-20T11:26:05;30.70;99.90
12926;DHT22;6529;50.566;9.774;2023-08-20T11:28:30;30.80;99.90
12926;DHT22;6529;50.566;9.774;2023-08-20T11:30:56;30.70;1.00
12926;DHT22;6529;50.566;9.774;2023-08-20T11:33:23;30.90;99.90
12926;DHT22;6529;50.566;9.774;2023-08-20T11:35:49;31.20;99.90
12926;DHT22;6529;50.566;9.774;2023-08-20T11:38:15;31.20;1.00
12926;DHT22;6529;50.566;9.774;2023-08-20T11:40:41;31.20;1.00
12926;DHT22;6529;50.566;9.774;2023-08-20T11:43:06;31.40;1.00
12926;DHT22;6529;50.566;9.774;2023-08-20T11:45:33;31.70;1.00
12926;DHT22;6529;50.566;9.774;2023-08-20T11:47:58;31.90;1.00
12926;DHT22;6529;50.566;9.774;2023-08-20T11:50:25;31.80;1.00
12926;DHT22;6529;50.566;9.774;2023-08-20T11:52:52;31.70;1.00
12926;DHT22;6529;50.566;9.774;2023-08-20T11:55:24;31.70;14.90
12926;DHT22;6529;50.566;9.774;2023-08-20T11:57:53;31.70;1.00
12926;DHT22;6529;50.566;9.774;2023-08-20T12:00:31;31.70;13.90
12926;DHT22;6529;50.566;9.774;2023-08-20T12:02:57;31.90;1.00
12926;DHT22;6529;50.566;9.774;2023-08-20T12:05:29;32.30;1.00
12926;DHT22;6529;50.566;9.774;2023-08-20T12:08:04;32.60;99.90
12926;DHT22;6529;50.566;9.774;2023-08-20T12:10:31;32.70;1.00
12926;DHT22;6529;50.566;9.774;2023-08-20T12:12:57;32.40;99.90
12926;DHT22;6529;50.566;9.774;2023-08-20T12:15:24;32.40;15.50
12926;DHT22;6529;50.566;9.774;2023-08-20T12:18:05;32.60;99.90
12926;DHT22;6529;50.566;9.774;2023-08-20T12:20:32;32.80;21.30
12926;DHT22;6529;50.566;9.774;2023-08-20T12:22:59;33.10;1.00
12926;DHT22;6529;50.566;9.774;2023-08-20T12:25:26;33.10;1.00
12926;DHT22;6529;50.566;9.774;2023-08-20T12:27:52;33.20;1.00
12926;DHT22;6529;50.566;9.774;2023-08-20T12:30:17;33.20;99.90
12926;DHT22;6529;50.566;9.774;2023-08-20T12:32:43;33.30;1.00
12926;DHT22;6529;50.566;9.774;2023-08-20T12:35:08;33.60;1.00
12926;DHT22;6529;50.566;9.774;2023-08-20T12:37:35;33.80;99.90
12926;DHT22;6529;50.566;9.774;2023-08-20T12:40:00;33.90;99.90
12926;DHT22;6529;50.566;9.774;2023-08-20T12:42:26;34.00;99.90
12926;DHT22;6529;50.566;9.774;2023-08-20T12:44:51;34.20;99.90
12926;DHT22;6529;50.566;9.774;2023-08-20T12:47:17;34.30;99.90
12926;DHT22;6529;50.566;9.774;2023-08-20T12:49:43;34.20;1.00
12926;DHT22;6529;50.566;9.774;2023-08-20T12:52:08;34.00;99.90
12926;DHT22;6529;50.566;9.774;2023-08-20T12:54:34;34.00;1.00
12926;DHT22;6529;50.566;9.774;2023-08-20T12:56:59;34.20;99.90
12926;DHT22;6529;50.566;9.774;2023-08-20T12:59:25;34.20;1.00
12926;DHT22;6529;50.566;9.774;2023-08-20T13:01:50;34.20;1.00
12926;DHT22;6529;50.566;9.774;2023-08-20T13:04:16;34.20;99.90
12926;DHT22;6529;50.566;9.774;2023-08-20T13:06:42;34.20;1.00
12926;DHT22;6529;50.566;9.774;2023-08-20T13:09:08;34.20;1.00
12926;DHT22;6529;50.566;9.774;2023-08-20T13:11:35;34.30;1.00
12926;DHT22;6529;50.566;9.774;2023-08-20T13:14:02;34.30;99.90
12926;DHT22;6529;50.566;9.774;2023-08-20T13:16:28;34.50;1.00
12926;DHT22;6529;50.566;9.774;2023-08-20T13:18:54;34.50;27.50
12926;DHT22;6529;50.566;9.774;2023-08-20T13:21:20;34.40;99.90
12926;DHT22;6529;50.566;9.774;2023-08-20T13:23:46;34.50;58.10
12926;DHT22;6529;50.566;9.774;2023-08-20T13:26:12;34.60;99.90
12926;DHT22;6529;50.566;9.774;2023-08-20T13:28:38;34.70;32.10
12926;DHT22;6529;50.566;9.774;2023-08-20T13:31:03;34.50;1.00
12926;DHT22;6529;50.566;9.774;2023-08-20T13:33:29;33.90;99.90
12926;DHT22;6529;50.566;9.774;2023-08-20T13:35:54;33.30;99.90
12926;DHT22;6529;50.566;9.774;2023-08-20T13:38:21;33.30;1.00
12926;DHT22;6529;50.566;9.774;2023-08-20T13:40:47;33.60;99.90
12926;DHT22;6529;50.566;9.774;2023-08-20T13:43:14;33.90;99.90
12926;DHT22;6529;50.566;9.774;2023-08-20T13:45:39;34.10;99.90
12926;DHT22;6529;50.566;9.774;2023-08-20T13:48:05;33.90;99.90
12926;DHT22;6529;50.566;9.774;2023-08-20T13:50:31;33.90;99.90
12926;DHT22;6529;50.566;9.774;2023-08-20T13:52:56;33.30;99.90
12926;DHT22;6529;50.566;9.774;2023-08-20T13:55:22;33.00;1.00
12926;DHT22;6529;50.566;9.774;2023-08-20T13:57:47;32.80;1.00
12926;DHT22;6529;50.566;9.774;2023-08-20T14:00:13;32.80;1.00
12926;DHT22;6529;50.566;9.774;2023-08-20T14:02:39;33.30;1.00
12926;DHT22;6529;50.566;9.774;2023-08-20T14:05:05;33.60;1.00
12926;DHT22;6529;50.566;9.774;2023-08-20T14:07:31;34.00;1.00
12926;DHT22;6529;50.566;9.774;2023-08-20T14:09:58;33.80;99.90
12926;DHT22;6529;50.566;9.774;2023-08-20T14:12:25;33.90;1.00
12926;DHT22;6529;50.566;9.774;2023-08-20T14:14:50;34.10;99.90
12926;DHT22;6529;50.566;9.774;2023-08-20T14:17:16;34.50;71.00
12926;DHT22;6529;50.566;9.774;2023-08-20T14:19:42;34.40;99.90
12926;DHT22;6529;50.566;9.774;2023-08-20T14:22:07;34.00;99.90
12926;DHT22;6529;50.566;9.774;2023-08-20T14:24:33;33.60;99.90
12926;DHT22;6529;50.566;9.774;2023-08-20T14:26:58;33.70;99.90
12926;DHT22;6529;50.566;9.774;2023-08-20T14:29:24;33.60;99.90
12926;DHT22;6529;50.566;9.774;2023-08-20T14:31:49;34.00;99.90
12926;DHT22;6529;50.566;9.774;2023-08-20T14:34:15;34.20;1.00
12926;DHT22;6529;50.566;9.774;2023-08-20T14:36:40;34.10;99.90
12926;DHT22;6529;50.566;9.774;2023-08-20T14:39:06;34.10;99.90
12926;DHT22;6529;50.566;9.774;2023-08-20T14:41:32;34.30;99.90
12926;DHT22;6529;50.566;9.774;2023-08-20T14:43:58;34.40;1.00
12926;DHT22;6529;50.566;9.774;2023-08-20T14:46:24;34.50;1.00
12926;DHT22;6529;50.566;9.774;2023-08-20T14:48:49;34.70;3.80
12926;DHT22;6529;50.566;9.774;2023-08-20T14:51:15;35.10;35.70
12926;DHT22;6529;50.566;9.774;2023-08-20T14:53:41;35.30;1.00
12926;DHT22;6529;50.566;9.774;2023-08-20T14:56:06;35.30;1.00
12926;DHT22;6529;50.566;9.774;2023-08-20T14:58:32;34.80;1.00
12926;DHT22;6529;50.566;9.774;2023-08-20T15:00:58;34.50;1.00
12926;DHT22;6529;50.566;9.774;2023-08-20T15:03:23;34.70;1.00
12926;DHT22;6529;50.566;9.774;2023-08-20T15:05:49;34.70;1.00
12926;DHT22;6529;50.566;9.774;2023-08-20T15:08:14;34.60;1.00
12926;DHT22;6529;50.566;9.774;2023-08-20T15:10:40;34.70;1.00
12926;DHT22;6529;50.566;9.774;2023-08-20T15:13:06;34.60;1.00
12926;DHT22;6529;50.566;9.774;2023-08-20T15:15:31;34.50;1.00
12926;DHT22;6529;50.566;9.774;2023-08-20T15:17:57;34.10;1.00
12926;DHT22;6529;50.566;9.774;2023-08-20T15:20:23;33.60;1.00
12926;DHT22;6529;50.566;9.774;2023-08-20T15:22:48;33.30;1.00
12926;DHT22;6529;50.566;9.774;2023-08-20T15:25:14;33.10;1.00
12926;DHT22;6529;50.566;9.774;2023-08-20T15:27:40;33.20;1.00
12926;DHT22;6529;50.566;9.774;2023-08-20T15:30:07;33.30;17.40
12926;DHT22;6529;50.566;9.774;2023-08-20T15:32:33;33.80;1.00
12926;DHT22;6529;50.566;9.774;2023-08-20T15:34:58;33.70;1.00
12926;DHT22;6529;50.566;9.774;2023-08-20T15:37:24;34.10;1.00
12926;DHT22;6529;50.566;9.774;2023-08-20T15:39:50;34.40;1.00
12926;DHT22;6529;50.566;9.774;2023-08-20T15:42:16;34.60;1.00
12926;DHT22;6529;50.566;9.774;2023-08-20T15:44:41;34.50;1.00
12926;DHT22;6529;50.566;9.774;2023-08-20T15:47:07;34.30;1.00
12926;DHT22;6529;50.566;9.774;2023-08-20T15:49:33;34.00;1.00
12926;DHT22;6529;50.566;9.774;2023-08-20T15:51:59;33.80;1.00
12926;DHT22;6529;50.566;9.774;2023-08-20T15:54:25;33.40;1.00
12926;DHT22;6529;50.566;9.774;2023-08-20T15:56:53;33.30;77.80
12926;DHT22;6529;50.566;9.774;2023-08-20T15:59:19;33.40;99.90
12926;DHT22;6529;50.566;9.774;2023-08-20T16:01:45;33.60;1.00
12926;DHT22;6529;50.566;9.774;2023-08-20T16:04:10;33.80;20.80
12926;DHT22;6529;50.566;9.774;2023-08-20T16:06:36;34.00;1.00